sensor_id;sensor_type;location;lat;lon;timestamp;pressure;altitude;pressure_sealevel;temperature;humidity
73501;BME280;61721;42.206;25.320;2022-07-01T00:01:01;99430.13;;;23.62;50.73
73501;BME280;61721;42.206;25.320;2022-07-01T00:03:30;99431.78;;;23.63;50.59
73501;BME280;61721;42.206;25.320;2022-07-01T00:05:59;99412.44;;;23.65;49.97
73501;BME280;61721;42.206;25.320;2022-07-01T00:08:27;99412.22;;;23.66;50.09
73501;BME280;61721;42.206;25.320;2022-07-01T00:10:54;99409.47;;;23.66;50.16
73501;BME280;61721;42.206;25.320;2022-07-01T00:13:21;99412.22;;;23.66;49.80
73501;BME280;61721;42.206;25.320;2022-07-01T00:15:48;99408.63;;;23.66;50.05
73501;BME280;61721;42.206;25.320;2022-07-01T00:18:15;99407.19;;;23.63;50.21
73501;BME280;61721;42.206;25.320;2022-07-01T00:20:43;99410.13;;;23.50;50.63
73501;BME280;61721;42.206;25.320;2022-07-01T00:23:11;99410.59;;;23.47;50.49
73501;BME280;61721;42.206;25.320;2022-07-01T00:25:39;99405.78;;;23.42;50.62
73501;BME280;61721;42.206;25.320;2022-07-01T00:28:06;99408.78;;;23.41;50.30
73501;BME280;61721;42.206;25.320;2022-07-01T00:30:33;99409.31;;;23.50;50.37
73501;BME280;61721;42.206;25.320;2022-07-01T00:33:00;99402.16;;;23.49;50.47
73501;BME280;61721;42.206;25.320;2022-07-01T00:35:27;99406.78;;;23.48;50.35
73501;BME280;61721;42.206;25.320;2022-07-01T00:37:57;99408.09;;;23.46;50.66
73501;BME280;61721;42.206;25.320;2022-07-01T00:40:24;99408.63;;;23.36;51.18
73501;BME280;61721;42.206;25.320;2022-07-01T00:42:52;99410.81;;;23.16;51.35
73501;BME280;61721;42.206;25.320;2022-07-01T00:45:19;99422.03;;;23.08;51.57
73501;BME280;61721;42.206;25.320;2022-07-01T00:47:46;99417.03;;;23.05;51.73
73501;BME280;61721;42.206;25.320;2022-07-01T00:50:15;99415.38;;;23.03;51.84
73501;BME280;61721;42.206;25.320;2022-07-01T00:52:44;99409.00;;;23.10;51.39
73501;BME280;61721;42.206;25.320;2022-07-01T00:55:14;99412.78;;;23.09;51.56
73501;BME280;61721;42.206;25.320;2022-07-01T00:57:43;99406.97;;;23.05;51.33
73501;BME280;61721;42.206;25.320;2022-07-01T01:00:12;99405.97;;;22.99;51.18
73501;BME280;61721;42.206;25.320;2022-07-01T01:02:40;99413.59;;;22.79;52.55
73501;BME280;61721;42.206;25.320;2022-07-01T01:05:08;99420.13;;;22.53;53.19
73501;BME280;61721;42.206;25.320;2022-07-01T01:07:35;99424.50;;;22.36;53.80
73501;BME280;61721;42.206;25.320;2022-07-01T01:10:03;99430.09;;;22.23;54.59
73501;BME280;61721;42.206;25.320;2022-07-01T01:12:32;99429.72;;;22.20;54.60
73501;BME280;61721;42.206;25.320;2022-07-01T01:15:00;99429.81;;;22.06;55.29
73501;BME280;61721;42.206;25.320;2022-07-01T01:17:27;99433.94;;;21.84;55.74
73501;BME280;61721;42.206;25.320;2022-07-01T01:19:54;99428.41;;;21.66;56.52
73501;BME280;61721;42.206;25.320;2022-07-01T01:22:23;99428.06;;;21.56;56.93
73501;BME280;61721;42.206;25.320;2022-07-01T01:24:50;99434.81;;;21.53;57.12
73501;BME280;61721;42.206;25.320;2022-07-01T01:27:17;99437.75;;;21.52;56.95
73501;BME280;61721;42.206;25.320;2022-07-01T01:29:44;99429.78;;;21.50;56.98
73501;BME280;61721;42.206;25.320;2022-07-01T01:32:11;99421.44;;;21.45;56.65
73501;BME280;61721;42.206;25.320;2022-07-01T01:34:39;99417.66;;;21.46;56.64
73501;BME280;61721;42.206;25.320;2022-07-01T01:37:07;99421.78;;;21.55;56.44
73501;BME280;61721;42.206;25.320;2022-07-01T01:39:36;99428.41;;;21.66;56.50
73501;BME280;61721;42.206;25.320;2022-07-01T01:42:04;99426.31;;;21.68;56.25
73501;BME280;61721;42.206;25.320;2022-07-01T01:44:31;99428.81;;;21.69;55.89
73501;BME280;61721;42.206;25.320;2022-07-01T01:46:59;99427.19;;;21.62;56.16
73501;BME280;61721;42.206;25.320;2022-07-01T01:49:26;99424.72;;;21.54;56.94
73501;BME280;61721;42.206;25.320;2022-07-01T01:51:53;99430.66;;;21.44;56.88
73501;BME280;61721;42.206;25.320;2022-07-01T01:54:20;99439.47;;;21.40;57.19
73501;BME280;61721;42.206;25.320;2022-07-01T01:56:49;99442.03;;;21.34;57.67
73501;BME280;61721;42.206;25.320;2022-07-01T01:59:16;99426.34;;;21.30;57.74
73501;BME280;61721;42.206;25.320;2022-07-01T02:01:43;99432.81;;;21.36;57.41
73501;BME280;61721;42.206;25.320;2022-07-01T02:04:10;99438.69;;;21.32;57.67
73501;BME280;61721;42.206;25.320;2022-07-01T02:06:37;99442.88;;;21.28;57.84
73501;BME280;61721;42.206;25.320;2022-07-01T02:09:06;99443.78;;;21.09;58.02
73501;BME280;61721;42.206;25.320;2022-07-01T02:11:34;99447.59;;;21.02;58.51
73501;BME280;61721;42.206;25.320;2022-07-01T02:14:03;99449.69;;;21.06;58.70
73501;BME280;61721;42.206;25.320;2022-07-01T02:16:30;99452.41;;;21.06;58.75
73501;BME280;61721;42.206;25.320;2022-07-01T02:18:57;99452.59;;;21.11;58.57
73501;BME280;61721;42.206;25.320;2022-07-01T02:21:25;99451.75;;;21.04;58.31
73501;BME280;61721;42.206;25.320;2022-07-01T02:23:52;99455.13;;;21.06;58.63
73501;BME280;61721;42.206;25.320;2022-07-01T02:26:19;99454.28;;;20.99;58.83
73501;BME280;61721;42.206;25.320;2022-07-01T02:28:47;99450.97;;;20.97;59.00
73501;BME280;61721;42.206;25.320;2022-07-01T02:31:16;99450.53;;;21.00;59.03
73501;BME280;61721;42.206;25.320;2022-07-01T02:33:43;99447.59;;;21.02;58.42
73501;BME280;61721;42.206;25.320;2022-07-01T02:36:10;99439.19;;;21.03;58.76
73501;BME280;61721;42.206;25.320;2022-07-01T02:38:37;99444.91;;;20.95;58.67
73501;BME280;61721;42.206;25.320;2022-07-01T02:41:04;99451.38;;;21.01;58.67
73501;BME280;61721;42.206;25.320;2022-07-01T02:43:31;99447.81;;;21.00;58.67
73501;BME280;61721;42.206;25.320;2022-07-01T02:45:59;99448.44;;;21.02;58.33
73501;BME280;61721;42.206;25.320;2022-07-01T02:48:27;99452.78;;;21.10;58.02
73501;BME280;61721;42.206;25.320;2022-07-01T02:50:54;99448.00;;;21.05;57.90
73501;BME280;61721;42.206;25.320;2022-07-01T02:53:21;99452.59;;;21.05;58.15
73501;BME280;61721;42.206;25.320;2022-07-01T02:55:49;99450.53;;;21.00;58.59
73501;BME280;61721;42.206;25.320;2022-07-01T02:58:17;99446.97;;;20.93;58.99
73501;BME280;61721;42.206;25.320;2022-07-01T03:00:44;99456.81;;;20.94;59.12
73501;BME280;61721;42.206;25.320;2022-07-01T03:03:14;99461.22;;;20.95;59.02
73501;BME280;61721;42.206;25.320;2022-07-01T03:05:42;99471.06;;;21.03;58.86
73501;BME280;61721;42.206;25.320;2022-07-01T03:08:09;99472.69;;;21.10;58.32
73501;BME280;61721;42.206;25.320;2022-07-01T03:10:37;99468.50;;;21.14;58.51
73501;BME280;61721;42.206;25.320;2022-07-01T03:13:04;99477.28;;;21.16;58.37
73501;BME280;61721;42.206;25.320;2022-07-01T03:15:31;99482.28;;;21.19;58.08
73501;BME280;61721;42.206;25.320;2022-07-01T03:17:58;99478.31;;;21.22;58.33
73501;BME280;61721;42.206;25.320;2022-07-01T03:20:25;99478.47;;;21.33;58.34
73501;BME280;61721;42.206;25.320;2022-07-01T03:22:54;99487.22;;;21.42;57.72
73501;BME280;61721;42.206;25.320;2022-07-01T03:25:21;99484.03;;;21.52;57.41
73501;BME280;61721;42.206;25.320;2022-07-01T03:27:48;99487.34;;;21.54;57.51
73501;BME280;61721;42.206;25.320;2022-07-01T03:30:16;99486.28;;;21.61;57.30
73501;BME280;61721;42.206;25.320;2022-07-01T03:32:43;99480.53;;;21.76;57.53
73501;BME280;61721;42.206;25.320;2022-07-01T03:35:11;99471.47;;;21.82;57.28
73501;BME280;61721;42.206;25.320;2022-07-01T03:37:56;99468.31;;;21.85;57.28
73501;BME280;61721;42.206;25.320;2022-07-01T03:40:24;99476.47;;;21.85;57.17
73501;BME280;61721;42.206;25.320;2022-07-01T03:42:51;99477.69;;;21.89;56.72
73501;BME280;61721;42.206;25.320;2022-07-01T03:45:19;99477.69;;;21.89;57.31
73501;BME280;61721;42.206;25.320;2022-07-01T03:47:46;99476.22;;;21.93;56.80
73501;BME280;61721;42.206;25.320;2022-07-01T03:50:14;99477.19;;;22.05;56.97
73501;BME280;61721;42.206;25.320;2022-07-01T03:52:41;99470.44;;;22.14;56.85
73501;BME280;61721;42.206;25.320;2022-07-01T03:55:10;99476.06;;;22.20;56.46
73501;BME280;61721;42.206;25.320;2022-07-01T03:57:37;99471.19;;;22.22;56.37
73501;BME280;61721;42.206;25.320;2022-07-01T04:00:05;99468.63;;;22.27;56.49
73501;BME280;61721;42.206;25.320;2022-07-01T04:02:33;99479.50;;;22.33;56.14
73501;BME280;61721;42.206;25.320;2022-07-01T04:05:00;99478.19;;;22.36;55.38
73501;BME280;61721;42.206;25.320;2022-07-01T04:07:27;99479.28;;;22.35;55.26
73501;BME280;61721;42.206;25.320;2022-07-01T04:09:55;99479.91;;;22.30;55.63
73501;BME280;61721;42.206;25.320;2022-07-01T04:12:23;99479.28;;;22.35;55.99
73501;BME280;61721;42.206;25.320;2022-07-01T04:14:50;99474.94;;;22.27;56.53
73501;BME280;61721;42.206;25.320;2022-07-01T04:17:18;99478.63;;;22.14;57.04
73501;BME280;61721;42.206;25.320;2022-07-01T04:19:45;99487.03;;;22.06;58.53
73501;BME280;61721;42.206;25.320;2022-07-01T04:22:12;99489.38;;;22.03;58.46
73501;BME280;61721;42.206;25.320;2022-07-01T04:24:56;99491.94;;;21.91;58.05
73501;BME280;61721;42.206;25.320;2022-07-01T04:27:26;99490.72;;;21.94;58.27
73501;BME280;61721;42.206;25.320;2022-07-01T04:29:54;99498.41;;;22.03;58.20
73501;BME280;61721;42.206;25.320;2022-07-01T04:32:22;99499.78;;;22.12;58.20
73501;BME280;61721;42.206;25.320;2022-07-01T04:34:49;99497.69;;;22.14;58.42
73501;BME280;61721;42.206;25.320;2022-07-01T04:37:17;99501.63;;;22.18;58.37
73501;BME280;61721;42.206;25.320;2022-07-01T04:39:45;99484.78;;;22.28;58.31
73501;BME280;61721;42.206;25.320;2022-07-01T04:42:12;99489.88;;;22.43;58.05
73501;BME280;61721;42.206;25.320;2022-07-01T04:44:42;99492.25;;;22.57;58.69
73501;BME280;61721;42.206;25.320;2022-07-01T04:47:09;99499.28;;;22.72;57.53
73501;BME280;61721;42.206;25.320;2022-07-01T04:49:36;99495.81;;;22.83;56.79
73501;BME280;61721;42.206;25.320;2022-07-01T04:52:04;99493.47;;;22.86;56.21
73501;BME280;61721;42.206;25.320;2022-07-01T04:54:31;99495.22;;;22.99;56.35
73501;BME280;61721;42.206;25.320;2022-07-01T04:56:58;99490.91;;;23.10;55.65
73501;BME280;61721;42.206;25.320;2022-07-01T04:59:25;99494.06;;;23.25;55.44
73501;BME280;61721;42.206;25.320;2022-07-01T05:01:54;99499.69;;;23.30;55.90
73501;BME280;61721;42.206;25.320;2022-07-01T05:04:21;99499.97;;;23.40;55.87
73501;BME280;61721;42.206;25.320;2022-07-01T05:06:49;99503.03;;;23.50;55.99
73501;BME280;61721;42.206;25.320;2022-07-01T05:09:16;99499.03;;;23.64;55.68
73501;BME280;61721;42.206;25.320;2022-07-01T05:11:43;99499.09;;;23.76;55.32
73501;BME280;61721;42.206;25.320;2022-07-01T05:14:10;99493.19;;;23.91;55.61
73501;BME280;61721;42.206;25.320;2022-07-01T05:16:37;99493.34;;;24.07;55.81
73501;BME280;61721;42.206;25.320;2022-07-01T05:19:06;99496.56;;;24.16;55.83
73501;BME280;61721;42.206;25.320;2022-07-01T05:21:51;99488.06;;;24.24;56.03
73501;BME280;61721;42.206;25.320;2022-07-01T05:24:26;99495.94;;;24.32;56.62
73501;BME280;61721;42.206;25.320;2022-07-01T05:26:56;99493.91;;;24.39;55.77
73501;BME280;61721;42.206;25.320;2022-07-01T05:29:23;99500.31;;;24.33;56.25
73501;BME280;61721;42.206;25.320;2022-07-01T05:31:51;99495.94;;;24.32;57.08
73501;BME280;61721;42.206;25.320;2022-07-01T05:34:20;99493.91;;;24.39;56.87
73501;BME280;61721;42.206;25.320;2022-07-01T05:36:47;99493.19;;;24.67;56.53
73501;BME280;61721;42.206;25.320;2022-07-01T05:39:14;99496.16;;;24.77;56.18
73501;BME280;61721;42.206;25.320;2022-07-01T05:41:42;99492.09;;;24.80;56.21
73501;BME280;61721;42.206;25.320;2022-07-01T05:44:09;99496.31;;;24.94;55.46
73501;BME280;61721;42.206;25.320;2022-07-01T05:46:37;99501.31;;;24.97;55.68
73501;BME280;61721;42.206;25.320;2022-07-01T05:49:06;99495.09;;;25.13;56.10
73501;BME280;61721;42.206;25.320;2022-07-01T05:51:34;99498.50;;;25.20;55.96
73501;BME280;61721;42.206;25.320;2022-07-01T05:54:02;99497.66;;;25.31;55.85
73501;BME280;61721;42.206;25.320;2022-07-01T05:56:29;99502.19;;;25.26;55.22
73501;BME280;61721;42.206;25.320;2022-07-01T05:58:57;99501.94;;;25.39;55.61
73501;BME280;61721;42.206;25.320;2022-07-01T06:01:24;99503.19;;;25.60;55.09
73501;BME280;61721;42.206;25.320;2022-07-01T06:03:51;99504.28;;;25.75;54.90
73501;BME280;61721;42.206;25.320;2022-07-01T06:06:18;99490.75;;;25.69;55.09
73501;BME280;61721;42.206;25.320;2022-07-01T06:08:47;99498.00;;;25.75;55.30
73501;BME280;61721;42.206;25.320;2022-07-01T06:11:14;99498.03;;;25.91;55.05
73501;BME280;61721;42.206;25.320;2022-07-01T06:13:42;99493.63;;;25.90;54.62
73501;BME280;61721;42.206;25.320;2022-07-01T06:16:09;99496.03;;;25.87;54.89
73501;BME280;61721;42.206;25.320;2022-07-01T06:18:36;99499.78;;;25.97;54.47
73501;BME280;61721;42.206;25.320;2022-07-01T06:21:03;99498.47;;;26.00;54.20
73501;BME280;61721;42.206;25.320;2022-07-01T06:23:31;99494.53;;;26.24;52.58
73501;BME280;61721;42.206;25.320;2022-07-01T06:25:59;99486.38;;;26.46;53.04
73501;BME280;61721;42.206;25.320;2022-07-01T06:28:27;99490.59;;;26.54;52.83
73501;BME280;61721;42.206;25.320;2022-07-01T06:30:56;99489.50;;;26.71;51.24
73501;BME280;61721;42.206;25.320;2022-07-01T06:33:23;99489.16;;;26.85;50.95
73501;BME280;61721;42.206;25.320;2022-07-01T06:35:51;99490.16;;;26.95;51.11
73501;BME280;61721;42.206;25.320;2022-07-01T06:38:18;99487.28;;;27.07;51.04
73501;BME280;61721;42.206;25.320;2022-07-01T06:40:45;99492.91;;;26.95;50.56
73501;BME280;61721;42.206;25.320;2022-07-01T06:43:35;99489.69;;;27.03;51.13
73501;BME280;61721;42.206;25.320;2022-07-01T06:46:03;99490.28;;;27.05;50.18
73501;BME280;61721;42.206;25.320;2022-07-01T06:48:31;99492.66;;;27.18;50.28
73501;BME280;61721;42.206;25.320;2022-07-01T06:50:58;99489.97;;;27.45;49.22
73501;BME280;61721;42.206;25.320;2022-07-01T06:53:25;99492.38;;;27.63;49.29
73501;BME280;61721;42.206;25.320;2022-07-01T06:55:53;99496.97;;;27.53;50.26
73501;BME280;61721;42.206;25.320;2022-07-01T06:58:20;99496.13;;;27.79;49.73
73501;BME280;61721;42.206;25.320;2022-07-01T07:00:49;99490.50;;;27.91;49.19
73501;BME280;61721;42.206;25.320;2022-07-01T07:03:16;99484.28;;;28.05;49.30
73501;BME280;61721;42.206;25.320;2022-07-01T07:05:49;99490.22;;;28.19;48.67
73501;BME280;61721;42.206;25.320;2022-07-01T07:08:18;99485.63;;;28.30;49.50
73501;BME280;61721;42.206;25.320;2022-07-01T07:10:54;99487.69;;;28.44;49.36
73501;BME280;61721;42.206;25.320;2022-07-01T07:13:21;99481.19;;;28.61;48.67
73501;BME280;61721;42.206;25.320;2022-07-01T07:15:53;99489.91;;;28.79;47.74
73501;BME280;61721;42.206;25.320;2022-07-01T07:18:27;99488.88;;;28.96;48.09
73501;BME280;61721;42.206;25.320;2022-07-01T07:20:55;99496.25;;;28.80;48.46
73501;BME280;61721;42.206;25.320;2022-07-01T07:23:44;99485.88;;;29.02;47.44
73501;BME280;61721;42.206;25.320;2022-07-01T07:26:11;99495.75;;;28.93;47.39
73501;BME280;61721;42.206;25.320;2022-07-01T07:28:42;99486.41;;;28.94;47.49
73501;BME280;61721;42.206;25.320;2022-07-01T07:31:11;99492.53;;;29.11;46.38
73501;BME280;61721;42.206;25.320;2022-07-01T07:33:38;99498.09;;;29.21;46.66
73501;BME280;61721;42.206;25.320;2022-07-01T07:36:08;99491.34;;;29.44;47.28
73501;BME280;61721;42.206;25.320;2022-07-01T07:38:36;99488.63;;;29.54;44.85
73501;BME280;61721;42.206;25.320;2022-07-01T07:41:10;99493.59;;;29.62;45.08
73501;BME280;61721;42.206;25.320;2022-07-01T07:43:38;99486.50;;;29.82;45.24
73501;BME280;61721;42.206;25.320;2022-07-01T07:46:06;99488.50;;;30.06;45.28
73501;BME280;61721;42.206;25.320;2022-07-01T07:48:43;99489.03;;;29.98;43.98
73501;BME280;61721;42.206;25.320;2022-07-01T07:51:11;99482.63;;;29.88;43.45
73501;BME280;61721;42.206;25.320;2022-07-01T07:54:00;99483.25;;;30.00;43.03
73501;BME280;61721;42.206;25.320;2022-07-01T07:56:31;99478.81;;;30.04;42.46
73501;BME280;61721;42.206;25.320;2022-07-01T07:58:58;99477.16;;;30.13;42.81
73501;BME280;61721;42.206;25.320;2022-07-01T08:01:28;99472.78;;;30.37;43.40
73501;BME280;61721;42.206;25.320;2022-07-01T08:03:57;99479.38;;;30.26;41.88
73501;BME280;61721;42.206;25.320;2022-07-01T08:06:25;99482.41;;;30.04;42.15
73501;BME280;61721;42.206;25.320;2022-07-01T08:08:58;99477.16;;;30.33;42.54
73501;BME280;61721;42.206;25.320;2022-07-01T08:11:25;99477.72;;;30.71;41.81
73501;BME280;61721;42.206;25.320;2022-07-01T08:14:02;99481.59;;;30.59;40.66
73501;BME280;61721;42.206;25.320;2022-07-01T08:16:31;99480.47;;;30.76;39.91
73501;BME280;61721;42.206;25.320;2022-07-01T08:19:03;99477.13;;;30.84;39.73
73501;BME280;61721;42.206;25.320;2022-07-01T08:21:31;99477.63;;;31.11;39.47
73501;BME280;61721;42.206;25.320;2022-07-01T08:24:14;99480.94;;;31.18;38.55
73501;BME280;61721;42.206;25.320;2022-07-01T08:26:41;99478.72;;;31.15;39.02
73501;BME280;61721;42.206;25.320;2022-07-01T08:29:08;99474.63;;;31.03;38.85
73501;BME280;61721;42.206;25.320;2022-07-01T08:31:53;99468.66;;;31.39;38.94
73501;BME280;61721;42.206;25.320;2022-07-01T08:34:36;99469.78;;;31.43;38.03
73501;BME280;61721;42.206;25.320;2022-07-01T08:37:05;99465.88;;;31.44;37.17
73501;BME280;61721;42.206;25.320;2022-07-01T08:39:45;99478.75;;;31.74;37.21
73501;BME280;61721;42.206;25.320;2022-07-01T08:42:12;99469.94;;;31.67;36.82
73501;BME280;61721;42.206;25.320;2022-07-01T08:44:39;99469.41;;;31.60;36.23
73501;BME280;61721;42.206;25.320;2022-07-01T08:47:11;99464.47;;;31.47;36.45
73501;BME280;61721;42.206;25.320;2022-07-01T08:49:41;99470.69;;;31.78;36.96
73501;BME280;61721;42.206;25.320;2022-07-01T08:52:08;99471.81;;;31.77;36.04
73501;BME280;61721;42.206;25.320;2022-07-01T08:58:22;99482.59;;;32.22;36.99
73501;BME280;61721;42.206;25.320;2022-07-01T09:01:11;99471.22;;;32.53;36.56
73501;BME280;61721;42.206;25.320;2022-07-01T09:03:41;99470.63;;;32.61;35.67
73501;BME280;61721;42.206;25.320;2022-07-01T09:06:23;99468.97;;;32.89;34.26
73501;BME280;61721;42.206;25.320;2022-07-01T09:08:50;99464.63;;;33.06;35.12
73501;BME280;61721;42.206;25.320;2022-07-01T09:11:19;99464.00;;;33.57;33.59
73501;BME280;61721;42.206;25.320;2022-07-01T09:14:10;99464.19;;;33.61;33.34
73501;BME280;61721;42.206;25.320;2022-07-01T09:16:48;99456.59;;;33.47;32.27
73501;BME280;61721;42.206;25.320;2022-07-01T09:19:20;99468.47;;;33.53;33.24
73501;BME280;61721;42.206;25.320;2022-07-01T09:21:53;99464.84;;;33.34;34.15
73501;BME280;61721;42.206;25.320;2022-07-01T09:24:27;99464.63;;;33.49;32.52
73501;BME280;61721;42.206;25.320;2022-07-01T09:26:56;99461.13;;;33.62;32.64
73501;BME280;61721;42.206;25.320;2022-07-01T09:29:41;99459.50;;;33.37;33.12
73501;BME280;61721;42.206;25.320;2022-07-01T09:32:13;99460.00;;;33.63;32.52
73501;BME280;61721;42.206;25.320;2022-07-01T09:34:43;99459.47;;;33.61;32.18
73501;BME280;61721;42.206;25.320;2022-07-01T09:37:28;99459.56;;;33.93;30.75
73501;BME280;61721;42.206;25.320;2022-07-01T09:40:18;99455.44;;;34.10;30.17
73501;BME280;61721;42.206;25.320;2022-07-01T09:42:46;99454.34;;;34.43;30.65
73501;BME280;61721;42.206;25.320;2022-07-01T09:45:14;99452.50;;;34.52;30.43
73501;BME280;61721;42.206;25.320;2022-07-01T09:47:44;99442.94;;;34.58;29.62
73501;BME280;61721;42.206;25.320;2022-07-01T09:50:24;99445.09;;;33.97;29.85
73501;BME280;61721;42.206;25.320;2022-07-01T09:53:00;99449.19;;;33.99;31.06
73501;BME280;61721;42.206;25.320;2022-07-01T09:55:48;99435.56;;;34.35;30.52
73501;BME280;61721;42.206;25.320;2022-07-01T10:01:55;99433.16;;;35.56;26.94
73501;BME280;61721;42.206;25.320;2022-07-01T10:04:35;99429.19;;;36.07;25.88
73501;BME280;61721;42.206;25.320;2022-07-01T10:07:34;99431.16;;;36.07;25.19
73501;BME280;61721;42.206;25.320;2022-07-01T10:13:40;99430.59;;;36.63;25.90
73501;BME280;61721;42.206;25.320;2022-07-01T10:16:12;99427.03;;;36.71;25.62
73501;BME280;61721;42.206;25.320;2022-07-01T10:19:24;99433.25;;;36.68;24.97
73501;BME280;61721;42.206;25.320;2022-07-01T10:22:59;99437.75;;;36.55;26.11
73501;BME280;61721;42.206;25.320;2022-07-01T10:29:34;99428.31;;;37.04;25.30
73501;BME280;61721;42.206;25.320;2022-07-01T10:32:28;99432.44;;;37.07;25.87
73501;BME280;61721;42.206;25.320;2022-07-01T10:35:06;99439.72;;;36.85;26.17
73501;BME280;61721;42.206;25.320;2022-07-01T10:37:57;99436.78;;;36.82;26.40
73501;BME280;61721;42.206;25.320;2022-07-01T10:40:42;99427.59;;;36.90;26.60
73501;BME280;61721;42.206;25.320;2022-07-01T10:43:19;99422.97;;;37.16;25.15
73501;BME280;61721;42.206;25.320;2022-07-01T10:46:04;99422.16;;;37.24;25.53
73501;BME280;61721;42.206;25.320;2022-07-01T10:48:34;99422.00;;;37.30;25.44
73501;BME280;61721;42.206;25.320;2022-07-01T10:51:03;99422.81;;;37.21;25.83
73501;BME280;61721;42.206;25.320;2022-07-01T10:53:47;99417.66;;;37.06;26.38
73501;BME280;61721;42.206;25.320;2022-07-01T10:56:16;99411.72;;;36.99;25.95
73501;BME280;61721;42.206;25.320;2022-07-01T11:00:25;99414.75;;;36.72;27.78
73501;BME280;61721;42.206;25.320;2022-07-01T11:06:38;99402.03;;;37.05;26.68
73501;BME280;61721;42.206;25.320;2022-07-01T11:11:18;99392.31;;;37.85;26.17
73501;BME280;61721;42.206;25.320;2022-07-01T11:19:38;99388.06;;;39.07;22.85
73501;BME280;61721;42.206;25.320;2022-07-01T11:22:44;99388.22;;;39.40;22.56
73501;BME280;61721;42.206;25.320;2022-07-01T11:25:14;99387.97;;;39.24;21.82
73501;BME280;61721;42.206;25.320;2022-07-01T11:27:53;99380.56;;;38.99;21.76
73501;BME280;61721;42.206;25.320;2022-07-01T11:30:44;99383.59;;;38.76;22.60
73501;BME280;61721;42.206;25.320;2022-07-01T11:33:12;99382.75;;;38.76;21.87
73501;BME280;61721;42.206;25.320;2022-07-01T11:39:19;99400.06;;;38.14;24.05
73501;BME280;61721;42.206;25.320;2022-07-01T11:45:49;99400.88;;;37.97;23.79
73501;BME280;61721;42.206;25.320;2022-07-01T11:48:32;99412.72;;;38.12;24.46
73501;BME280;61721;42.206;25.320;2022-07-01T11:51:01;99410.09;;;37.89;25.12
73501;BME280;61721;42.206;25.320;2022-07-01T11:57:10;99404.72;;;37.10;27.00
73501;BME280;61721;42.206;25.320;2022-07-01T11:59:43;99406.53;;;36.22;29.44
73501;BME280;61721;42.206;25.320;2022-07-01T12:02:18;99406.94;;;35.85;30.63
73501;BME280;61721;42.206;25.320;2022-07-01T12:04:59;99406.59;;;35.50;32.80
73501;BME280;61721;42.206;25.320;2022-07-01T12:07:40;99409.19;;;35.06;34.86
73501;BME280;61721;42.206;25.320;2022-07-01T12:22:43;99403.31;;;33.69;38.88
73501;BME280;61721;42.206;25.320;2022-07-01T12:25:15;99406.00;;;33.56;38.98
73501;BME280;61721;42.206;25.320;2022-07-01T12:27:47;99408.38;;;33.43;38.83
73501;BME280;61721;42.206;25.320;2022-07-01T12:30:24;99391.34;;;33.50;38.29
73501;BME280;61721;42.206;25.320;2022-07-01T12:33:07;99395.56;;;33.66;37.71
73501;BME280;61721;42.206;25.320;2022-07-01T12:35:39;99385.66;;;33.98;37.91
73501;BME280;61721;42.206;25.320;2022-07-01T12:38:16;99391.09;;;34.35;38.67
73501;BME280;61721;42.206;25.320;2022-07-01T12:40:43;99377.75;;;34.51;39.14
73501;BME280;61721;42.206;25.320;2022-07-01T12:43:22;99369.31;;;34.56;37.81
73501;BME280;61721;42.206;25.320;2022-07-01T12:45:50;99371.91;;;34.52;38.37
73501;BME280;61721;42.206;25.320;2022-07-01T12:48:19;99370.97;;;34.43;39.37
73501;BME280;61721;42.206;25.320;2022-07-01T12:50:47;99360.69;;;34.57;39.71
73501;BME280;61721;42.206;25.320;2022-07-01T12:53:19;99360.28;;;34.78;38.64
73501;BME280;61721;42.206;25.320;2022-07-01T12:55:48;99356.06;;;34.94;38.35
73501;BME280;61721;42.206;25.320;2022-07-01T12:58:18;99358.91;;;35.16;40.21
73501;BME280;61721;42.206;25.320;2022-07-01T13:00:47;99356.50;;;35.37;39.89
73501;BME280;61721;42.206;25.320;2022-07-01T13:03:29;99353.22;;;35.35;37.10
73501;BME280;61721;42.206;25.320;2022-07-01T13:05:57;99348.00;;;35.55;36.92
73501;BME280;61721;42.206;25.320;2022-07-01T13:11:58;99337.50;;;35.97;33.99
73501;BME280;61721;42.206;25.320;2022-07-01T13:14:39;99334.47;;;36.07;35.29
73501;BME280;61721;42.206;25.320;2022-07-01T13:31:30;99325.53;;;36.50;31.49
73501;BME280;61721;42.206;25.320;2022-07-01T13:34:10;99325.97;;;36.74;31.26
73501;BME280;61721;42.206;25.320;2022-07-01T13:36:37;99318.25;;;36.71;31.42
73501;BME280;61721;42.206;25.320;2022-07-01T13:42:59;99313.63;;;36.27;29.34
73501;BME280;61721;42.206;25.320;2022-07-01T13:49:04;99310.94;;;35.91;29.91
73501;BME280;61721;42.206;25.320;2022-07-01T13:51:41;99309.03;;;35.78;28.63
73501;BME280;61721;42.206;25.320;2022-07-01T14:01:51;99299.53;;;35.56;28.22
73501;BME280;61721;42.206;25.320;2022-07-01T14:04:45;99303.91;;;35.49;28.31
73501;BME280;61721;42.206;25.320;2022-07-01T14:16:30;99304.94;;;35.03;29.07
73501;BME280;61721;42.206;25.320;2022-07-01T14:19:00;99299.09;;;34.91;27.63
73501;BME280;61721;42.206;25.320;2022-07-01T14:21:29;99302.69;;;34.92;28.79
73501;BME280;61721;42.206;25.320;2022-07-01T14:23:56;99296.94;;;34.88;28.82
73501;BME280;61721;42.206;25.320;2022-07-01T14:26:33;99295.28;;;34.87;28.74
73501;BME280;61721;42.206;25.320;2022-07-01T14:29:05;99297.03;;;34.69;28.23
73501;BME280;61721;42.206;25.320;2022-07-01T14:31:39;99292.50;;;34.46;27.59
73501;BME280;61721;42.206;25.320;2022-07-01T14:34:31;99295.06;;;34.29;27.14
73501;BME280;61721;42.206;25.320;2022-07-01T14:37:23;99295.16;;;34.24;27.82
73501;BME280;61721;42.206;25.320;2022-07-01T14:40:18;99297.94;;;34.24;27.74
73501;BME280;61721;42.206;25.320;2022-07-01T14:42:46;99289.19;;;34.17;27.96
73501;BME280;61721;42.206;25.320;2022-07-01T14:45:13;99281.38;;;34.19;27.37